This is the latest recevied weather packets stored in our database for station/object PA0HHN. If no packets are shown the sender has not sent any weather packets the latest 10 day(s).
| Time | Temp. | Humidity | Pressure | Rain* | Wind** | Luminosity | Snow |
|---|---|---|---|---|---|---|---|
| 1778288402 | 7.78° C | 92% | 1014.9 hPa | - | - | - | - |
| 1778275800 | 10° C | 79% | 1014.2 hPa | - | - | - | - |
| 1778274902 | 11.11° C | 78% | 1014.3 hPa | - | - | - | - |
| 1778274002 | 11.11° C | 77% | 1014.2 hPa | - | - | - | - |
| 1778273101 | 11.11° C | 75% | 1014.4 hPa | - | - | - | - |
| 1778272202 | 12.22° C | 74% | 1014.1 hPa | - | - | - | - |
| 1778271302 | 12.22° C | 72% | 1014.3 hPa | - | - | - | - |
| 1778267702 | 13.89° C | 65% | 1013.5 hPa | - | - | - | - |
| 1778266802 | 13.89° C | 63% | 1013.3 hPa | - | - | - | - |
| 1778265902 | 15° C | 61% | 1013.2 hPa | - | - | - | - |
| 1778265001 | 15° C | 58% | 1013 hPa | - | - | - | - |
| 1778264101 | 15° C | 58% | 1012.6 hPa | - | - | - | - |
| 1778263202 | 16.11° C | 56% | 1012.8 hPa | - | - | - | - |
| 1778257802 | 16.11° C | 52% | 1012.3 hPa | - | - | - | - |
| 1778256902 | 17.22° C | 49% | 1012.2 hPa | - | - | - | - |
| 1778256000 | 17.22° C | 43% | 1012.4 hPa | - | - | - | - |
| 1778255100 | 17.78° C | 41% | 1012.5 hPa | - | - | - | - |
| 1778254202 | 17.78° C | 39% | 1012.5 hPa | - | - | - | - |
| 1778253300 | 17.78° C | 40% | 1012.7 hPa | - | - | - | - |
| 1778252401 | 17.78° C | 40% | 1012.7 hPa | - | - | - | - |
| 1778251502 | 17.78° C | 37% | 1012.7 hPa | - | - | - | - |
| 1778250600 | 17.78° C | 39% | 1012.9 hPa | - | - | - | - |
| 1778249701 | 17.78° C | 37% | 1012.6 hPa | - | - | - | - |
| 1778241601 | 17.22° C | 30% | 1013.3 hPa | - | - | - | - |
| 1778240702 | 17.22° C | 36% | 1013.5 hPa | - | - | - | - |
* Rain since midnight (hover to see other rain measurements)
** Current wind speed in m/s (hover to see current wind gust speed)